In Rescue
 
Open Full Screen Window  High Contrast Mode
October 25, 2021 4:35 PM EDT
Weather Information
Wind Direction
  ---
Wind Speed
  00 kt (0 mph)
Wind Gust
  00 kt (0 mph)
Altimeter
30.01 in
Visibility
10 SM
Temperature
05° C
41° F
Dewpoint
04° C
39° F
Humidity
93%
Sky Condition
Overcast @ 2,200 ft
MVFR

METAR KCDA 252035Z AUTO 00000KT 10SM OVC022 05/04 A3001 RMK AO2 T00480038

FAA Disclaimer: The data displayed is for advisory purposes only and is not to be used for flight planning or operations.